createdAt,value
2018-07-11T00:02:17.816Z,46.70
2018-07-11T00:04:46.223Z,46.90
2018-07-11T00:07:15.565Z,47.00
2018-07-11T00:12:11.959Z,47.10
2018-07-11T00:14:40.315Z,47.60
2018-07-11T00:17:15.502Z,47.50
2018-07-11T00:19:44.407Z,47.40
2018-07-11T00:22:12.835Z,48.30
2018-07-11T00:24:41.128Z,48.00
2018-07-11T00:27:09.551Z,48.00
2018-07-11T00:29:38.157Z,47.60
2018-07-11T00:32:06.484Z,47.50
2018-07-11T00:34:34.946Z,47.60
2018-07-11T00:37:03.388Z,47.50
2018-07-11T00:39:31.768Z,47.50
2018-07-11T00:42:00.262Z,47.50
2018-07-11T00:44:28.615Z,47.50
2018-07-11T00:46:57.049Z,47.40
2018-07-11T00:49:25.581Z,47.50
2018-07-11T00:51:54.552Z,47.70
2018-07-11T00:54:23.075Z,48.10
2018-07-11T00:56:51.927Z,48.10
2018-07-11T00:59:24.972Z,47.90
2018-07-11T01:01:54.271Z,48.00
2018-07-11T01:04:22.679Z,47.70
2018-07-11T01:06:51.871Z,47.80
2018-07-11T01:09:20.440Z,47.60
2018-07-11T01:14:17.208Z,47.80
2018-07-11T01:19:14.552Z,47.80
2018-07-11T01:21:42.904Z,47.70
2018-07-11T01:24:11.420Z,47.50
2018-07-11T01:26:40.522Z,47.60
2018-07-11T01:29:09.623Z,47.50
2018-07-11T01:31:38.514Z,47.60
2018-07-11T01:34:06.952Z,47.80
2018-07-11T01:36:35.278Z,48.10
2018-07-11T01:39:04.863Z,47.80
2018-07-11T01:41:33.271Z,48.20
2018-07-11T01:44:01.605Z,48.20
2018-07-11T01:46:41.762Z,48.30
2018-07-11T01:49:10.165Z,47.50
2018-07-11T01:54:12.678Z,48.40
2018-07-11T01:56:41.699Z,47.90
2018-07-11T01:59:10.503Z,48.00
2018-07-11T02:01:39.323Z,47.90
2018-07-11T02:04:07.935Z,47.80
2018-07-11T02:06:36.388Z,48.00
2018-07-11T02:09:05.187Z,48.10
2018-07-11T02:11:34.056Z,48.30
2018-07-11T02:14:03.163Z,48.20
2018-07-11T02:16:32.081Z,48.20
2018-07-11T02:19:00.487Z,48.40
2018-07-11T02:21:29.632Z,48.20
2018-07-11T02:24:00.612Z,48.10
2018-07-11T02:26:29.298Z,47.90
2018-07-11T02:28:58.323Z,47.70
2018-07-11T02:31:27.014Z,47.90
2018-07-11T02:33:55.432Z,48.00
2018-07-11T02:36:23.955Z,48.10
2018-07-11T02:38:52.433Z,48.20
2018-07-11T02:41:21.029Z,48.50
2018-07-11T02:43:49.443Z,48.30
2018-07-11T02:46:20.028Z,48.10
2018-07-11T02:48:48.436Z,48.30
2018-07-11T02:51:17.299Z,48.60
2018-07-11T02:53:46.445Z,48.40
2018-07-11T02:56:15.080Z,48.40
2018-07-11T02:58:43.445Z,48.30
2018-07-11T03:01:11.808Z,48.30
2018-07-11T03:03:40.170Z,48.30
2018-07-11T03:06:08.629Z,48.50
2018-07-11T03:08:38.511Z,48.30
2018-07-11T03:11:07.089Z,48.10
2018-07-11T03:13:35.636Z,48.10
2018-07-11T03:16:04.009Z,48.30
2018-07-11T03:18:32.542Z,48.30
2018-07-11T03:21:00.967Z,48.30
2018-07-11T03:23:29.372Z,48.00
2018-07-11T03:25:57.777Z,48.10
2018-07-11T03:28:26.095Z,48.20
2018-07-11T03:30:54.526Z,48.00
2018-07-11T03:33:22.882Z,48.20
2018-07-11T03:35:51.787Z,48.10
2018-07-11T03:38:20.402Z,48.00
2018-07-11T03:40:48.780Z,48.00
2018-07-11T03:43:17.669Z,47.90
2018-07-11T03:45:46.036Z,48.00
2018-07-11T03:48:14.370Z,47.80
2018-07-11T03:50:42.951Z,47.80
2018-07-11T03:53:11.307Z,47.90
2018-07-11T03:55:39.782Z,48.00
2018-07-11T03:58:08.190Z,47.90
2018-07-11T04:03:05.006Z,47.80
2018-07-11T04:05:33.319Z,47.70
2018-07-11T04:08:01.668Z,48.30
2018-07-11T04:10:30.035Z,47.70
2018-07-11T04:13:01.135Z,47.70
2018-07-11T04:15:29.540Z,47.90
2018-07-11T04:17:57.860Z,47.80
2018-07-11T04:20:26.407Z,47.90
2018-07-11T04:22:54.764Z,47.90
2018-07-11T04:25:23.219Z,48.20
2018-07-11T04:27:51.799Z,47.90
2018-07-11T04:30:20.451Z,47.80
2018-07-11T04:32:48.821Z,47.90
2018-07-11T04:35:17.373Z,47.50
2018-07-11T04:37:45.813Z,47.40
2018-07-11T04:40:14.207Z,47.40
2018-07-11T04:42:42.680Z,47.40
2018-07-11T04:45:11.106Z,47.50
2018-07-11T04:47:39.811Z,47.60
2018-07-11T04:50:08.279Z,47.30
2018-07-11T04:52:36.701Z,47.20
2018-07-11T04:55:05.200Z,47.20
2018-07-11T04:57:33.522Z,47.30
2018-07-11T05:00:01.832Z,47.40
2018-07-11T05:02:30.170Z,47.40
2018-07-11T05:04:58.674Z,47.50
2018-07-11T05:07:27.115Z,47.30
2018-07-11T05:09:55.435Z,47.80
2018-07-11T05:12:23.919Z,47.80
2018-07-11T05:14:52.245Z,47.50
2018-07-11T05:17:20.611Z,48.10
2018-07-11T05:19:49.147Z,47.50
2018-07-11T05:22:17.561Z,47.60
2018-07-11T05:24:46.101Z,47.70
2018-07-11T05:27:14.457Z,47.50
2018-07-11T05:29:43.136Z,47.50
2018-07-11T05:32:11.671Z,47.20
2018-07-11T05:34:40.021Z,47.10
2018-07-11T05:37:08.368Z,46.90
2018-07-11T05:39:36.750Z,47.10
2018-07-11T05:42:05.233Z,47.10
2018-07-11T05:44:33.708Z,46.70
2018-07-11T05:47:06.829Z,46.80
2018-07-11T05:49:35.898Z,46.70
2018-07-11T05:52:04.547Z,46.80
2018-07-11T05:54:34.254Z,46.70
2018-07-11T05:57:02.930Z,46.80
2018-07-11T05:59:31.311Z,46.60
2018-07-11T06:01:59.955Z,46.70
2018-07-11T06:04:28.617Z,46.40
2018-07-11T06:06:57.091Z,46.60
2018-07-11T06:09:25.452Z,46.80
2018-07-11T06:11:54.664Z,47.10
2018-07-11T06:14:22.955Z,47.80
2018-07-11T06:16:51.389Z,47.50
2018-07-11T06:19:19.659Z,47.10
2018-07-11T06:21:49.737Z,47.20
2018-07-11T06:24:18.565Z,47.20
2018-07-11T06:26:47.145Z,47.30
2018-07-11T06:29:15.718Z,47.40
2018-07-11T06:31:44.230Z,47.30
2018-07-11T06:34:12.660Z,47.40
2018-07-11T06:36:41.056Z,47.30
2018-07-11T06:39:09.446Z,47.30
2018-07-11T06:41:37.847Z,47.30
2018-07-11T06:44:06.136Z,47.20
2018-07-11T06:46:34.465Z,47.00
2018-07-11T06:49:02.782Z,47.00
2018-07-11T06:51:31.181Z,47.10
2018-07-11T06:53:59.483Z,46.70
2018-07-11T06:56:27.779Z,46.50
2018-07-11T06:58:56.128Z,46.90
2018-07-11T07:01:24.764Z,46.70
2018-07-11T07:03:53.875Z,46.70
2018-07-11T07:06:22.512Z,46.60
2018-07-11T07:08:50.854Z,46.40
2018-07-11T07:11:19.257Z,46.50
2018-07-11T07:13:47.656Z,46.70
2018-07-11T07:16:16.243Z,46.40
2018-07-11T07:18:44.715Z,46.20
2018-07-11T07:21:13.135Z,46.00
2018-07-11T07:23:41.412Z,45.70
2018-07-11T07:26:09.755Z,45.70
2018-07-11T07:28:38.457Z,45.80
2018-07-11T07:31:07.048Z,45.60
2018-07-11T07:33:35.374Z,45.40
2018-07-11T07:36:03.679Z,45.30
2018-07-11T07:38:37.559Z,45.20
2018-07-11T07:41:06.615Z,44.90
2018-07-11T07:43:35.542Z,44.80
2018-07-11T07:46:03.922Z,44.40
2018-07-11T07:48:32.625Z,44.20
2018-07-11T07:51:00.967Z,44.50
2018-07-11T07:53:29.431Z,43.90
2018-07-11T07:58:32.818Z,44.20
2018-07-11T08:01:01.240Z,44.10
2018-07-11T08:03:30.536Z,44.00
2018-07-11T08:05:59.207Z,44.10
2018-07-11T08:08:27.589Z,44.00
2018-07-11T08:10:56.083Z,43.90
2018-07-11T08:13:24.404Z,43.70
2018-07-11T08:15:52.714Z,43.50
2018-07-11T08:18:21.139Z,43.30
2018-07-11T08:20:49.917Z,43.50
2018-07-11T08:23:33.926Z,43.20
2018-07-11T08:26:13.627Z,43.00
2018-07-11T08:28:52.434Z,42.40
2018-07-11T08:31:43.007Z,42.50
2018-07-11T08:34:53.750Z,42.50
2018-07-11T08:37:48.577Z,42.70
2018-07-11T08:40:32.493Z,42.40
2018-07-11T08:43:13.951Z,42.50
2018-07-11T08:45:52.723Z,42.30
2018-07-11T08:48:32.703Z,42.40
2018-07-11T08:52:10.613Z,42.30
2018-07-11T08:54:52.003Z,42.00
2018-07-11T08:57:30.157Z,42.20
2018-07-11T09:01:12.310Z,42.40
2018-07-11T09:04:17.446Z,42.20
2018-07-11T09:08:58.574Z,42.30
2018-07-11T09:12:15.274Z,42.60
2018-07-11T09:15:23.104Z,43.00
2018-07-11T09:18:12.629Z,42.60
2018-07-11T09:20:55.802Z,42.70
2018-07-11T09:23:35.777Z,42.50
2018-07-11T09:26:04.284Z,42.20
2018-07-11T09:28:32.744Z,42.20
2018-07-11T09:31:01.189Z,42.00
2018-07-11T09:33:29.501Z,41.60
2018-07-11T09:35:58.071Z,41.70
2018-07-11T09:38:26.578Z,41.30
2018-07-11T09:40:55.071Z,40.50
2018-07-11T09:43:23.576Z,40.00
2018-07-11T09:45:52.155Z,39.30
2018-07-11T09:48:20.991Z,39.00
2018-07-11T09:50:50.016Z,38.90
2018-07-11T09:53:18.665Z,38.30
2018-07-11T09:55:47.544Z,38.90
2018-07-11T09:58:16.160Z,38.80
2018-07-11T10:00:49.934Z,39.10
2018-07-11T10:03:19.063Z,39.20
2018-07-11T10:05:47.772Z,39.30
2018-07-11T10:08:16.209Z,40.20
2018-07-11T10:10:44.681Z,39.90
2018-07-11T10:13:13.409Z,40.10
2018-07-11T10:15:41.810Z,40.20
2018-07-11T10:18:10.218Z,40.10
2018-07-11T10:20:38.822Z,40.30
2018-07-11T10:23:07.203Z,40.60
2018-07-11T10:25:35.532Z,40.40
2018-07-11T10:28:15.798Z,40.30
2018-07-11T10:30:44.718Z,40.30
2018-07-11T10:33:13.851Z,40.30
2018-07-11T10:35:42.759Z,40.30
2018-07-11T10:38:12.217Z,39.70
2018-07-11T10:40:40.694Z,39.30
2018-07-11T10:43:09.592Z,39.00
2018-07-11T10:45:38.170Z,38.70
2018-07-11T10:48:07.035Z,38.20
2018-07-11T10:50:35.326Z,38.60
2018-07-11T10:53:03.958Z,38.00
2018-07-11T10:55:32.307Z,37.60
2018-07-11T10:58:00.693Z,37.10
2018-07-11T11:00:36.659Z,36.70
2018-07-11T11:02:59.082Z,36.60
2018-07-11T11:05:27.444Z,35.90
2018-07-11T11:07:55.800Z,35.00
2018-07-11T11:10:24.635Z,35.20
2018-07-11T11:12:53.012Z,35.90
2018-07-11T11:15:21.732Z,35.70
2018-07-11T11:17:50.209Z,35.80
2018-07-11T11:20:18.581Z,36.10
2018-07-11T11:22:46.958Z,36.30
2018-07-11T11:25:15.668Z,36.30
2018-07-11T11:27:44.139Z,36.70
2018-07-11T11:30:12.675Z,37.00
2018-07-11T11:32:41.407Z,37.30
2018-07-11T11:35:09.715Z,37.70
2018-07-11T11:37:38.014Z,37.70
2018-07-11T11:40:06.646Z,37.90
2018-07-11T11:42:35.289Z,37.90
2018-07-11T11:45:03.538Z,37.40
2018-07-11T11:47:31.971Z,37.20
2018-07-11T11:50:00.363Z,37.10
2018-07-11T11:52:28.692Z,37.10
2018-07-11T11:54:57.101Z,37.30
2018-07-11T11:57:25.529Z,37.50
2018-07-11T11:59:53.902Z,37.10
2018-07-11T12:02:22.322Z,37.80
2018-07-11T12:04:50.994Z,36.90
2018-07-11T12:07:19.678Z,35.90
2018-07-11T12:09:48.143Z,35.60
2018-07-11T12:12:16.728Z,34.70
2018-07-11T12:14:45.353Z,34.20
2018-07-11T12:17:20.746Z,33.80
2018-07-11T12:19:49.255Z,33.00
2018-07-11T12:22:23.024Z,32.50
2018-07-11T12:24:52.102Z,32.30
2018-07-11T12:27:20.755Z,32.00
2018-07-11T12:29:50.544Z,31.80
2018-07-11T12:32:19.208Z,31.10
2018-07-11T12:34:47.813Z,30.90
2018-07-11T12:37:16.602Z,30.80
2018-07-11T12:39:45.578Z,30.50
2018-07-11T12:42:14.106Z,30.80
2018-07-11T12:44:48.859Z,30.70
2018-07-11T12:47:22.745Z,30.70
2018-07-11T12:49:51.071Z,30.80
2018-07-11T12:52:19.439Z,31.30
2018-07-11T12:54:47.982Z,30.20
2018-07-11T12:57:16.711Z,30.00
2018-07-11T12:59:45.635Z,29.60
2018-07-11T13:02:14.649Z,29.70
2018-07-11T13:04:43.407Z,28.60
2018-07-11T13:07:12.093Z,28.50
2018-07-11T13:09:40.465Z,28.50
2018-07-11T13:12:08.900Z,28.70
2018-07-11T13:14:37.247Z,28.70
2018-07-11T13:17:05.617Z,28.80
2018-07-11T13:19:33.935Z,29.00
2018-07-11T13:22:02.298Z,29.00
2018-07-11T13:24:30.772Z,29.20
2018-07-11T13:26:59.562Z,29.50
2018-07-11T13:29:27.999Z,30.20
2018-07-11T13:32:04.012Z,30.00
2018-07-11T13:37:18.889Z,30.60
2018-07-11T13:39:51.463Z,30.80
2018-07-11T13:42:23.918Z,30.90
2018-07-11T13:44:59.725Z,30.90
2018-07-11T13:47:28.252Z,31.80
2018-07-11T13:49:56.998Z,31.30
2018-07-11T13:52:25.348Z,31.50
2018-07-11T13:54:53.738Z,31.50
2018-07-11T13:57:22.739Z,31.70
2018-07-11T13:59:51.550Z,31.90
2018-07-11T14:02:19.901Z,31.90
2018-07-11T14:04:48.399Z,32.00
2018-07-11T14:07:16.975Z,32.10
2018-07-11T14:09:45.590Z,32.20
2018-07-11T14:12:14.196Z,32.30
2018-07-11T14:14:42.639Z,32.60
2018-07-11T14:17:11.085Z,32.50
2018-07-11T14:19:39.382Z,32.70
2018-07-11T14:22:07.767Z,32.60
2018-07-11T14:24:36.215Z,32.70
2018-07-11T14:27:04.592Z,32.80
2018-07-11T14:29:32.961Z,32.80
2018-07-11T14:32:01.761Z,32.60
2018-07-11T14:34:30.196Z,32.40
2018-07-11T14:36:58.667Z,32.30
2018-07-11T14:39:26.987Z,32.20
2018-07-11T14:41:55.657Z,32.40
2018-07-11T14:44:24.022Z,33.10
2018-07-11T14:46:52.483Z,32.40
2018-07-11T14:49:21.621Z,32.50
2018-07-11T14:54:18.101Z,32.50
2018-07-11T14:56:46.832Z,32.70
2018-07-11T14:59:15.287Z,32.80
2018-07-11T15:04:12.011Z,33.10
2018-07-11T15:06:40.523Z,33.10
2018-07-11T15:09:09.079Z,33.30
2018-07-11T15:14:05.505Z,34.40
2018-07-11T15:16:33.915Z,33.90
2018-07-11T15:19:02.377Z,34.10
2018-07-11T15:21:37.755Z,34.40
2018-07-11T15:24:06.147Z,34.60
2018-07-11T15:26:34.583Z,34.90
2018-07-11T15:29:03.384Z,35.10
2018-07-11T15:31:31.902Z,35.10
2018-07-11T15:34:00.629Z,35.10
2018-07-11T15:36:29.077Z,35.20
2018-07-11T15:38:57.743Z,35.70
2018-07-11T15:41:29.165Z,35.20
2018-07-11T15:43:57.838Z,35.20
2018-07-11T15:46:26.451Z,35.20
2018-07-11T15:48:55.067Z,35.30
2018-07-11T15:51:23.520Z,35.50
2018-07-11T15:53:52.062Z,35.50
2018-07-11T15:56:20.752Z,35.60
2018-07-11T15:58:53.686Z,35.60
2018-07-11T16:01:22.132Z,35.80
2018-07-11T16:03:50.662Z,35.80
2018-07-11T16:06:19.742Z,35.80
2018-07-11T16:08:51.076Z,36.00
2018-07-11T16:11:19.983Z,35.90
2018-07-11T16:13:48.471Z,35.90
2018-07-11T16:16:17.063Z,35.90
2018-07-11T16:18:45.450Z,36.00
2018-07-11T16:21:14.340Z,35.90
2018-07-11T16:23:43.172Z,36.40
2018-07-11T16:26:11.566Z,35.80
2018-07-11T16:28:40.790Z,35.90
2018-07-11T16:31:09.407Z,35.90
2018-07-11T16:33:37.942Z,35.70
2018-07-11T16:36:06.211Z,35.70
2018-07-11T16:38:34.563Z,35.70
2018-07-11T16:41:03.011Z,35.60
2018-07-11T16:43:31.357Z,35.70
2018-07-11T16:45:59.854Z,35.70
2018-07-11T16:48:28.322Z,35.60
2018-07-11T16:50:58.527Z,35.30
2018-07-11T16:53:26.907Z,35.40
2018-07-11T16:55:55.388Z,35.30
2018-07-11T16:58:26.919Z,35.60
2018-07-11T17:00:55.317Z,35.80
2018-07-11T17:03:25.207Z,35.20
2018-07-11T17:05:57.430Z,35.40
2018-07-11T17:08:29.308Z,35.50
2018-07-11T17:11:12.954Z,35.50
2018-07-11T17:13:47.861Z,35.80
2018-07-11T17:18:46.378Z,35.70
2018-07-11T17:21:22.104Z,35.60
2018-07-11T17:23:54.166Z,35.70
2018-07-11T17:26:25.979Z,35.80
2018-07-11T17:28:56.107Z,35.70
2018-07-11T17:31:24.614Z,35.50
2018-07-11T17:33:52.972Z,35.20
2018-07-11T17:36:21.352Z,35.40
2018-07-11T17:38:49.791Z,35.60
2018-07-11T17:41:18.172Z,35.60
2018-07-11T17:43:51.403Z,35.00
2018-07-11T17:46:22.219Z,35.00
2018-07-11T17:49:15.313Z,35.40
2018-07-11T17:52:08.479Z,35.20
2018-07-11T17:55:04.907Z,35.40
2018-07-11T17:58:39.960Z,35.70
2018-07-11T18:01:08.295Z,35.60
2018-07-11T18:03:48.859Z,35.70
2018-07-11T18:06:25.823Z,35.90
2018-07-11T18:09:08.319Z,35.90
2018-07-11T18:11:47.282Z,36.10
2018-07-11T18:14:21.872Z,35.90
2018-07-11T18:16:55.978Z,36.10
2018-07-11T18:21:35.093Z,36.20
2018-07-11T18:26:14.253Z,36.10
2018-07-11T18:32:36.168Z,36.60
2018-07-11T18:35:16.414Z,36.80
2018-07-11T18:37:54.397Z,36.80
2018-07-11T18:40:37.459Z,36.90
2018-07-11T18:45:30.946Z,36.70
2018-07-11T18:48:03.280Z,36.60
2018-07-11T18:50:48.496Z,36.60
2018-07-11T18:53:23.531Z,36.60
2018-07-11T18:56:03.402Z,36.90
2018-07-11T18:58:39.774Z,36.90
2018-07-11T19:02:31.599Z,36.80
2018-07-11T19:05:08.511Z,36.90
2018-07-11T19:08:13.663Z,37.20
2018-07-11T19:10:55.591Z,37.40
2018-07-11T19:13:30.192Z,37.80
2018-07-11T19:16:15.377Z,38.00
2018-07-11T19:19:00.642Z,38.10
2018-07-11T19:21:40.983Z,38.30
2018-07-11T19:24:15.711Z,38.70
2018-07-11T19:26:53.817Z,38.80
2018-07-11T19:30:42.195Z,38.90
2018-07-11T19:33:27.209Z,39.30
2018-07-11T19:36:07.273Z,40.10
2018-07-11T19:38:39.563Z,40.10
2018-07-11T19:41:16.617Z,40.30
2018-07-11T19:45:02.506Z,40.20
2018-07-11T19:47:56.367Z,40.50
2018-07-11T19:50:34.703Z,40.10
2018-07-11T19:53:16.048Z,40.00
2018-07-11T19:56:49.222Z,39.80
2018-07-11T19:59:17.767Z,40.00
2018-07-11T20:01:46.355Z,39.80
2018-07-11T20:04:15.265Z,39.80
2018-07-11T20:06:44.028Z,39.30
2018-07-11T20:09:13.154Z,39.40
2018-07-11T20:11:41.846Z,39.60
2018-07-11T20:14:10.211Z,40.20
2018-07-11T20:16:38.676Z,41.00
2018-07-11T20:19:07.205Z,41.30
2018-07-11T20:21:35.603Z,41.60
2018-07-11T20:24:04.083Z,42.30
2018-07-11T20:26:32.552Z,42.20
2018-07-11T20:31:29.103Z,43.40
2018-07-11T20:33:57.510Z,44.20
2018-07-11T20:36:25.843Z,44.00
2018-07-11T20:38:54.362Z,43.70
2018-07-11T20:41:23.224Z,44.10
2018-07-11T20:43:52.187Z,44.10
2018-07-11T20:46:20.802Z,44.10
2018-07-11T20:48:49.310Z,45.00
2018-07-11T20:51:17.974Z,45.10
2018-07-11T20:53:46.533Z,45.20
2018-07-11T20:56:14.885Z,46.20
2018-07-11T20:58:54.535Z,45.80
2018-07-11T21:01:34.143Z,45.90
2018-07-11T21:05:17.864Z,46.00
2018-07-11T21:08:33.340Z,46.10
2018-07-11T21:13:23.511Z,46.40
2018-07-11T21:16:16.810Z,47.00
2018-07-11T21:19:08.700Z,48.30
2018-07-11T21:21:39.046Z,48.40
2018-07-11T21:24:08.629Z,48.40
2018-07-11T21:26:38.032Z,48.10
2018-07-11T21:29:07.343Z,48.30
2018-07-11T21:31:35.675Z,48.80
2018-07-11T21:34:04.227Z,48.40
2018-07-11T21:36:32.579Z,48.60
2018-07-11T21:39:01.003Z,48.30
2018-07-11T21:43:57.399Z,48.70
2018-07-11T21:46:25.798Z,48.50
2018-07-11T21:48:54.188Z,49.10
2018-07-11T21:51:22.541Z,49.10
2018-07-11T21:53:50.825Z,48.80
2018-07-11T21:56:19.136Z,48.80
2018-07-11T22:01:17.114Z,49.30
2018-07-11T22:03:45.562Z,49.30
2018-07-11T22:06:14.016Z,49.30
2018-07-11T22:08:42.428Z,49.00
2018-07-11T22:11:11.119Z,49.30
2018-07-11T22:13:39.535Z,49.20
2018-07-11T22:16:08.004Z,49.30
2018-07-11T22:18:41.282Z,49.40
2018-07-11T22:21:09.845Z,49.30
2018-07-11T22:23:37.581Z,49.10
2018-07-11T22:26:04.875Z,49.40
2018-07-11T22:28:32.150Z,49.80
2018-07-11T22:30:59.545Z,49.80
2018-07-11T22:33:26.982Z,49.90
2018-07-11T22:35:54.283Z,49.90
2018-07-11T22:38:21.518Z,49.80
2018-07-11T22:40:48.792Z,49.80
2018-07-11T22:43:16.078Z,50.00
2018-07-11T22:45:43.349Z,50.10
2018-07-11T22:48:10.783Z,50.20
2018-07-11T22:50:38.049Z,50.30
2018-07-11T22:53:05.338Z,50.30
2018-07-11T22:55:32.593Z,50.60
2018-07-11T22:57:59.887Z,50.50
2018-07-11T23:00:27.271Z,50.50
2018-07-11T23:02:54.539Z,50.80
2018-07-11T23:05:21.782Z,51.00
2018-07-11T23:07:49.128Z,50.80
2018-07-11T23:10:16.385Z,51.00
2018-07-11T23:12:43.653Z,50.90
2018-07-11T23:15:11.084Z,50.90
2018-07-11T23:17:38.466Z,51.20
2018-07-11T23:20:06.065Z,51.10
2018-07-11T23:22:33.306Z,50.90
2018-07-11T23:25:00.592Z,51.40
2018-07-11T23:27:27.875Z,51.20
2018-07-11T23:29:55.184Z,51.40
2018-07-11T23:32:22.463Z,51.50
2018-07-11T23:34:49.751Z,51.70
2018-07-11T23:37:17.020Z,51.50
2018-07-11T23:39:44.288Z,51.30
2018-07-11T23:42:11.567Z,51.70
2018-07-11T23:44:38.933Z,51.50
2018-07-11T23:47:06.217Z,51.70
2018-07-11T23:49:33.546Z,51.60
2018-07-11T23:52:00.844Z,51.60
2018-07-11T23:54:28.187Z,51.70
2018-07-11T23:56:55.511Z,51.80
2018-07-11T23:59:22.831Z,51.30
